Time;durP1;ratioP1;P1;durP2;ratioP2;P2;SDS_P1;SDS_P2;PMS_P1;PMS_P2;Temp;Humidity;BMP_temperature;BMP_pressure;BME280_temperature;BME280_humidity;BME280_pressure;Samples;Min_cycle;Max_cycle;Signal;HPM_P1;HPM_P2
2021/07/12 04:31:20;;;;;;;4.53;4.17;;;13.00;99.90;;;;;;5790022;23;20997;-78
2021/07/12 04:33:46;;;;;;;4.47;4.07;;;13.10;99.90;;;;;;4949906;29;20436;-77
2021/07/12 04:36:12;;;;;;;3.87;3.57;;;13.30;99.90;;;;;;4950242;28;20181;-78
2021/07/12 04:38:39;;;;;;;4.67;4.37;;;13.30;99.90;;;;;;4936126;29;20216;-78
2021/07/12 04:41:05;;;;;;;4.10;3.80;;;13.40;99.90;;;;;;4937780;29;20551;-79
2021/07/12 04:43:30;;;;;;;4.73;3.80;;;13.50;99.90;;;;;;4955173;29;20451;-77
2021/07/12 04:45:56;;;;;;;3.97;3.67;;;13.60;99.90;;;;;;4954093;29;20412;-78
2021/07/12 04:48:21;;;;;;;5.50;3.40;;;13.60;99.90;;;;;;4949313;29;20263;-78
2021/07/12 04:50:47;;;;;;;4.07;3.73;;;13.70;99.90;;;;;;4946743;28;20271;-78
2021/07/12 04:53:12;;;;;;;4.50;4.10;;;13.70;99.90;;;;;;4952933;29;20185;-78
2021/07/12 04:55:38;;;;;;;4.07;3.67;;;13.80;99.90;;;;;;4954597;29;20185;-78
2021/07/12 04:58:04;;;;;;;6.10;5.50;;;13.90;99.90;;;;;;4951897;29;20192;-78
2021/07/12 05:00:29;;;;;;;4.97;4.47;;;14.00;99.90;;;;;;4954619;29;20192;-80
2021/07/12 05:02:55;;;;;;;7.50;5.13;;;14.20;99.90;;;;;;4952252;28;20271;-77
2021/07/12 05:05:20;;;;;;;9.10;6.30;;;14.50;99.90;;;;;;4952919;29;20662;-77
2021/07/12 05:07:46;;;;;;;7.60;5.60;;;14.70;99.90;;;;;;4948963;29;20188;-77
2021/07/12 05:10:12;;;;;;;5.60;4.27;;;14.90;99.90;;;;;;4950586;29;20519;-77
2021/07/12 05:12:38;;;;;;;5.73;4.47;;;15.20;99.90;;;;;;4952750;28;20298;-77
2021/07/12 05:15:07;;;;;;;4.67;4.27;;;15.70;99.90;;;;;;4950063;29;20919;-78
2021/07/12 05:17:32;;;;;;;4.43;3.93;;;16.30;99.90;;;;;;4954053;29;20467;-72
2021/07/12 05:19:58;;;;;;;3.77;3.53;;;16.70;99.90;;;;;;4952173;29;20867;-72
2021/07/12 05:22:25;;;;;;;6.30;3.50;;;17.20;99.90;;;;;;4939212;28;20233;-72
2021/07/12 05:24:52;;;;;;;4.13;3.73;;;17.40;99.90;;;;;;4935233;29;20177;-72
2021/07/12 05:27:17;;;;;;;3.40;3.20;;;17.90;99.90;;;;;;4952580;29;20420;-72
2021/07/12 05:29:43;;;;;;;7.47;3.80;;;18.20;99.90;;;;;;4952244;29;20966;-72
2021/07/12 05:32:08;;;;;;;3.30;2.80;;;18.50;99.90;;;;;;4953616;28;20315;-72
2021/07/12 05:34:34;;;;;;;5.90;2.70;;;18.90;99.90;;;;;;4951350;29;20189;-72
2021/07/12 05:36:59;;;;;;;3.23;2.93;;;19.20;99.90;;;;;;4951961;29;20219;-72
2021/07/12 05:39:25;;;;;;;11.63;2.80;;;19.30;99.90;;;;;;4953153;29;20236;-72
2021/07/12 05:41:51;;;;;;;4.37;3.03;;;19.60;99.90;;;;;;4950367;29;20710;-72
2021/07/12 05:44:16;;;;;;;3.20;3.00;;;19.80;99.90;;;;;;4954269;29;20204;-72
2021/07/12 05:46:42;;;;;;;7.73;2.90;;;20.00;99.90;;;;;;4950774;28;20263;-71
2021/07/12 05:49:07;;;;;;;5.63;2.70;;;20.30;99.90;;;;;;4954035;29;20204;-71
2021/07/12 05:51:33;;;;;;;3.70;2.90;;;20.40;99.90;;;;;;4947057;28;20291;-71
2021/07/12 05:53:58;;;;;;;2.97;2.67;;;20.70;99.90;;;;;;4953579;28;20192;-72
2021/07/12 05:56:24;;;;;;;3.00;2.70;;;20.90;99.90;;;;;;4951815;28;20192;-73
2021/07/12 05:58:49;;;;;;;3.00;2.67;;;21.20;99.90;;;;;;4950588;29;20557;-73
2021/07/12 06:01:16;;;;;;;4.30;2.63;;;21.30;99.90;;;;;;4945884;28;20205;-73
2021/07/12 06:03:42;;;;;;;6.63;3.40;;;21.50;99.90;;;;;;4953421;28;20173;-72
2021/07/12 06:06:08;;;;;;;2.93;2.73;;;21.70;99.90;;;;;;4951901;29;20793;-72
2021/07/12 06:08:33;;;;;;;4.57;2.33;;;21.90;99.90;;;;;;4952543;29;20428;-73
2021/07/12 06:10:59;;;;;;;2.50;2.30;;;22.10;99.90;;;;;;4952938;28;20856;-72
2021/07/12 06:13:24;;;;;;;3.53;2.77;;;22.30;99.90;;;;;;4953059;28;20253;-72
2021/07/12 06:15:50;;;;;;;4.60;2.63;;;22.40;99.90;;;;;;4953207;28;20228;-73
2021/07/12 06:18:16;;;;;;;2.87;2.67;;;22.50;99.90;;;;;;4952748;28;20482;-72
2021/07/12 06:20:43;;;;;;;3.00;2.27;;;22.60;99.90;;;;;;4953253;28;20172;-72
2021/07/12 06:23:09;;;;;;;7.60;2.03;;;22.50;99.90;;;;;;4952799;28;20448;-72
2021/07/12 06:25:35;;;;;;;2.93;1.70;;;22.20;99.90;;;;;;4953099;28;20855;-72
2021/07/12 06:28:01;;;;;;;4.50;2.13;;;22.20;99.90;;;;;;4952323;28;20441;-72
2021/07/12 06:30:27;;;;;;;2.20;1.87;;;22.20;99.90;;;;;;4951460;28;20921;-72
2021/07/12 06:32:52;;;;;;;2.93;2.10;;;22.50;99.90;;;;;;4952509;28;20212;-72
2021/07/12 06:35:18;;;;;;;8.67;2.80;;;22.90;99.90;;;;;;4952775;28;20177;-72
2021/07/12 06:37:43;;;;;;;5.27;2.23;;;22.90;99.90;;;;;;4952804;28;20180;-72
2021/07/12 06:40:09;;;;;;;4.17;1.97;;;22.80;99.90;;;;;;4952438;28;20558;-72
2021/07/12 06:42:36;;;;;;;6.37;1.73;;;22.80;99.90;;;;;;4952476;28;20678;-72
2021/07/12 06:45:03;;;;;;;4.10;1.93;;;23.00;99.90;;;;;;4967559;28;20741;-72
2021/07/12 06:47:28;;;;;;;2.10;1.90;;;23.20;99.90;;;;;;4952771;28;20480;-72
2021/07/12 06:49:54;;;;;;;3.30;1.70;;;23.00;99.90;;;;;;4952713;28;20420;-73
2021/07/12 06:52:20;;;;;;;3.97;2.50;;;23.20;99.90;;;;;;4952485;28;20274;-72
2021/07/12 06:54:45;;;;;;;3.27;1.70;;;23.40;99.90;;;;;;4953146;28;20185;-72
2021/07/12 06:57:13;;;;;;;2.90;1.00;;;23.30;99.90;;;;;;4952465;28;20188;-72
2021/07/12 06:59:38;;;;;;;2.40;1.20;;;23.30;99.90;;;;;;4952635;28;20243;-72
2021/07/12 07:02:04;;;;;;;2.20;1.40;;;23.50;99.90;;;;;;4967263;28;20449;-72
2021/07/12 07:04:29;;;;;;;1.50;1.40;;;23.60;99.90;;;;;;4952724;28;20171;-73
2021/07/12 07:06:55;;;;;;;2.53;1.50;;;23.50;99.90;;;;;;4952710;28;20175;-74
2021/07/12 07:09:20;;;;;;;9.83;2.17;;;23.70;99.90;;;;;;4952848;28;20256;-71
2021/07/12 07:11:46;;;;;;;1.90;1.80;;;23.40;99.90;;;;;;4953334;28;20669;-72
2021/07/12 07:14:11;;;;;;;2.80;2.20;;;23.30;99.90;;;;;;4955957;28;20184;-72
2021/07/12 07:16:37;;;;;;;2.67;2.30;;;23.10;99.90;;;;;;4956212;28;20215;-72
2021/07/12 07:19:03;;;;;;;2.30;2.03;;;22.90;99.90;;;;;;4956013;28;20201;-72
2021/07/12 07:21:29;;;;;;;2.93;2.33;;;22.80;99.90;;;;;;4956267;28;20239;-72
2021/07/12 07:23:55;;;;;;;1.83;1.73;;;22.80;99.90;;;;;;4956013;28;20173;-73
2021/07/12 07:26:20;;;;;;;2.00;1.87;;;23.00;99.90;;;;;;4956177;28;20413;-72
2021/07/12 07:28:46;;;;;;;4.50;1.67;;;22.90;99.90;;;;;;4956354;28;20260;-73
2021/07/12 07:31:13;;;;;;;2.93;1.83;;;23.10;99.90;;;;;;4955947;28;20212;-73
2021/07/12 07:33:38;;;;;;;1.73;1.63;;;23.20;99.90;;;;;;4955999;28;20595;-74
2021/07/12 07:36:04;;;;;;;1.97;1.60;;;23.50;99.90;;;;;;4955692;28;20412;-72
2021/07/12 07:38:29;;;;;;;2.93;1.70;;;23.50;99.90;;;;;;4955364;28;20262;-72
2021/07/12 07:40:55;;;;;;;4.03;1.87;;;23.50;99.90;;;;;;4955250;28;20205;-74
2021/07/12 07:43:21;;;;;;;1.80;1.40;;;23.80;99.90;;;;;;4955583;28;20169;-73
2021/07/12 07:45:46;;;;;;;1.77;1.47;;;24.00;99.90;;;;;;4955921;28;20217;-73
2021/07/12 07:48:12;;;;;;;4.20;2.13;;;24.40;99.90;;;;;;4953635;28;20812;-73
2021/07/12 07:50:40;;;;;;;6.60;1.77;;;24.80;99.90;;;;;;4955557;28;20169;-74
2021/07/12 07:53:07;;;;;;;4.40;1.40;;;25.00;99.90;;;;;;4955298;28;20918;-74
2021/07/12 07:55:33;;;;;;;3.10;1.77;;;25.20;99.90;;;;;;4970163;28;20448;-73
2021/07/12 07:57:59;;;;;;;2.83;2.03;;;25.20;99.90;;;;;;4955246;28;20423;-74
2021/07/12 08:00:26;;;;;;;3.10;1.53;;;25.50;99.90;;;;;;4955759;28;20416;-73
2021/07/12 08:02:52;;;;;;;4.43;2.23;;;25.70;99.90;;;;;;4955293;28;20184;-73
2021/07/12 08:05:19;;;;;;;4.30;2.00;;;25.70;99.90;;;;;;4955755;28;20483;-73
2021/07/12 08:07:45;;;;;;;2.60;2.40;;;25.60;99.90;;;;;;4955548;28;20409;-73
2021/07/12 08:10:13;;;;;;;2.20;2.10;;;25.60;99.90;;;;;;4970155;28;20455;-73
2021/07/12 08:12:39;;;;;;;3.07;1.60;;;25.70;99.90;;;;;;4954375;28;20441;-72
2021/07/12 08:15:06;;;;;;;2.03;1.73;;;26.00;99.90;;;;;;4955380;28;20435;-73
2021/07/12 08:17:32;;;;;;;3.90;1.50;;;26.20;99.90;;;;;;4955057;28;20859;-73
2021/07/12 08:19:58;;;;;;;1.73;1.40;;;26.50;99.90;;;;;;4955010;28;20499;-73
2021/07/12 08:22:24;;;;;;;2.20;1.47;;;26.80;99.90;;;;;;4955115;28;20468;-73
2021/07/12 08:24:50;;;;;;;1.80;1.70;;;26.70;99.90;;;;;;4953564;29;20177;-74
2021/07/12 08:27:15;;;;;;;1.90;1.80;;;26.80;99.90;;;;;;4954360;28;20188;-73
2021/07/12 08:29:41;;;;;;;2.00;1.67;;;26.90;99.90;;;;;;4955054;28;20542;-73
2021/07/12 08:32:06;;;;;;;1.90;1.43;;;26.80;99.90;;;;;;4954914;28;20323;-73
2021/07/12 08:34:38;;;;;;;1.40;1.30;;;26.60;99.90;;;;;;4969875;28;20188;-72
2021/07/12 08:37:04;;;;;;;1.13;1.10;;;26.90;99.90;;;;;;4955018;28;20474;-72
2021/07/12 08:39:30;;;;;;;1.53;1.43;;;27.00;99.90;;;;;;4954804;28;20463;-73
2021/07/12 08:41:55;;;;;;;1.30;1.20;;;27.40;99.90;;;;;;4969985;28;20224;-73
2021/07/12 08:44:21;;;;;;;2.00;1.40;;;27.80;99.90;;;;;;4955022;28;20172;-74
2021/07/12 08:46:46;;;;;;;1.50;1.40;;;27.80;99.90;;;;;;4955180;28;20271;-73
2021/07/12 08:49:12;;;;;;;4.93;1.60;;;28.30;99.90;;;;;;4955090;28;20546;-73
2021/07/12 08:51:37;;;;;;;3.03;1.30;;;28.50;99.90;;;;;;4954784;28;20200;-73
2021/07/12 08:54:03;;;;;;;1.73;1.63;;;28.60;99.90;;;;;;4954229;28;20176;-73
2021/07/12 08:56:28;;;;;;;0.97;0.97;;;28.70;99.90;;;;;;4954952;28;20203;-73
2021/07/12 08:58:54;;;;;;;2.10;1.30;;;28.90;99.90;;;;;;4954171;28;20552;-74
2021/07/12 09:01:20;;;;;;;1.67;1.40;;;29.00;99.90;;;;;;4956346;28;20259;-74
2021/07/12 09:03:51;;;;;;;1.17;1.17;;;28.80;99.90;;;;;;4954363;28;20219;-73
2021/07/12 09:06:20;;;;;;;1.30;1.20;;;28.90;99.90;;;;;;4954012;28;20245;-73
2021/07/12 09:08:54;;;;;;;1.57;1.47;;;28.80;99.90;;;;;;4954338;28;20495;-73
2021/07/12 09:11:30;;;;;;;2.30;1.50;;;29.00;99.90;;;;;;4968987;28;20443;-73
2021/07/12 09:14:00;;;;;;;1.20;1.10;;;29.30;99.90;;;;;;4954276;28;20495;-73
2021/07/12 09:16:36;;;;;;;1.47;1.30;;;29.60;99.90;;;;;;4954415;28;20408;-73
2021/07/12 09:19:20;;;;;;;0.97;0.97;;;29.90;99.90;;;;;;4954136;28;20487;-73
2021/07/12 09:21:54;;;;;;;1.90;0.90;;;30.10;99.90;;;;;;4954236;28;20437;-73
2021/07/12 09:24:56;;;;;;;1.23;1.13;;;29.90;99.90;;;;;;4954002;28;20809;-73
2021/07/12 09:27:26;;;;;;;1.30;1.20;;;29.80;99.90;;;;;;4949778;28;20436;-73
2021/07/12 09:30:00;;;;;;;1.37;1.27;;;29.50;99.90;;;;;;4954128;28;20412;-72
2021/07/12 09:32:30;;;;;;;1.80;1.27;;;29.90;99.90;;;;;;4953372;28;20815;-74
2021/07/12 09:35:05;;;;;;;1.47;1.17;;;30.40;99.90;;;;;;4953447;28;20914;-73
2021/07/12 09:37:31;;;;;;;3.93;1.80;;;30.20;99.90;;;;;;4953925;28;20420;-73
2021/07/12 09:39:57;;;;;;;1.60;1.30;;;30.30;99.90;;;;;;4953903;28;20559;-73
2021/07/12 09:42:30;;;;;;;1.33;0.90;;;30.50;99.90;;;;;;4954226;28;20201;-74
2021/07/12 09:45:00;;;;;;;2.60;1.00;;;30.40;99.90;;;;;;4953777;28;20432;-73
2021/07/12 09:47:28;;;;;;;3.93;1.53;;;31.10;99.90;;;;;;4953980;28;20421;-74
2021/07/12 09:50:10;;;;;;;1.13;1.13;;;30.80;99.90;;;;;;4953216;28;20448;-73
2021/07/12 09:52:43;;;;;;;4.00;1.20;;;30.70;99.90;;;;;;4953041;28;20440;-72
2021/07/12 09:55:22;;;;;;;1.50;1.40;;;30.90;99.90;;;;;;4953170;28;20787;-71
2021/07/12 09:58:12;;;;;;;4.30;1.33;;;30.60;99.90;;;;;;4953602;28;20416;-73
2021/07/12 10:00:48;;;;;;;1.80;1.20;;;30.60;99.90;;;;;;4951266;28;20412;-72
2021/07/12 10:03:15;;;;;;;1.17;1.13;;;31.40;99.90;;;;;;4949349;28;21600;-74
2021/07/12 10:05:41;;;;;;;1.33;1.23;;;31.20;99.90;;;;;;4950204;28;20989;-73
2021/07/12 10:08:07;;;;;;;1.37;1.30;;;31.10;99.90;;;;;;4948283;28;20420;-73
2021/07/12 10:10:32;;;;;;;1.37;1.10;;;30.60;99.90;;;;;;4949086;28;20224;-73
2021/07/12 10:12:58;;;;;;;1.40;1.40;;;30.50;99.90;;;;;;4964183;28;20704;-73
2021/07/12 10:15:24;;;;;;;1.60;1.50;;;30.70;99.90;;;;;;4949360;29;20191;-74
2021/07/12 10:17:49;;;;;;;1.53;1.43;;;30.50;99.90;;;;;;4950196;28;20593;-73
2021/07/12 10:20:17;;;;;;;1.57;1.30;;;30.50;99.90;;;;;;4949433;28;20208;-74
2021/07/12 10:22:43;;;;;;;2.03;1.40;;;30.20;99.90;;;;;;4949317;28;20264;-72
2021/07/12 10:25:15;;;;;;;1.00;1.00;;;29.30;99.90;;;;;;4934503;29;20527;-73
2021/07/12 10:27:55;;;;;;;2.20;1.37;;;28.80;99.90;;;;;;4948629;28;20427;-73
2021/07/12 10:30:28;;;;;;;1.80;1.70;;;28.20;99.90;;;;;;4947678;28;20424;-73
2021/07/12 10:33:05;;;;;;;1.67;1.57;;;28.00;99.90;;;;;;4948138;28;20455;-72
2021/07/12 10:35:53;;;;;;;1.53;1.20;;;27.90;99.90;;;;;;4947338;28;21236;-73
2021/07/12 10:38:28;;;;;;;3.10;1.40;;;27.90;99.90;;;;;;4946340;29;20424;-73
2021/07/12 10:40:59;;;;;;;5.40;1.50;;;28.00;99.90;;;;;;4948382;28;20471;-73
2021/07/12 10:43:49;;;;;;;4.47;1.40;;;28.00;99.90;;;;;;4964822;28;20790;-74
2021/07/12 10:46:30;;;;;;;0.90;0.90;;;28.10;99.90;;;;;;4951188;28;20421;-73
2021/07/12 10:49:03;;;;;;;12.23;8.87;;;28.30;99.90;;;;;;4952984;28;20797;-73
2021/07/12 10:51:34;;;;;;;2.40;2.20;;;28.40;99.90;;;;;;4953621;28;20530;-73
2021/07/12 10:54:11;;;;;;;2.40;2.20;;;28.40;99.90;;;;;;4952012;28;20423;-72
2021/07/12 10:56:40;;;;;;;1.73;1.40;;;28.50;99.90;;;;;;4952182;29;20483;-73
2021/07/12 10:59:06;;;;;;;1.87;1.40;;;28.50;99.90;;;;;;4950888;28;20459;-73
2021/07/12 11:01:37;;;;;;;1.23;1.23;;;28.30;99.90;;;;;;4954407;28;20862;-73
2021/07/12 11:04:45;;;;;;;1.77;1.53;;;28.10;99.90;;;;;;4954025;28;20760;-73
2021/07/12 11:07:14;;;;;;;3.00;1.60;;;28.10;99.90;;;;;;4953099;28;20502;-72
2021/07/12 11:09:54;;;;;;;1.70;1.40;;;27.90;99.90;;;;;;4953377;28;20782;-73
2021/07/12 11:12:29;;;;;;;2.20;1.20;;;27.70;99.90;;;;;;4952558;28;20443;-73
2021/07/12 11:15:08;;;;;;;2.80;1.40;;;27.80;99.90;;;;;;4953222;28;20427;-75
2021/07/12 11:17:58;;;;;;;1.33;1.23;;;27.70;99.90;;;;;;4952049;28;20451;-73
2021/07/12 11:20:49;;;;;;;4.30;1.67;;;27.70;99.90;;;;;;4951034;29;20506;-73
2021/07/12 11:23:34;;;;;;;1.90;1.47;;;27.80;99.90;;;;;;4951490;28;20413;-73
2021/07/12 11:26:00;;;;;;;1.77;1.47;;;27.80;99.90;;;;;;4951627;29;20447;-74
2021/07/12 11:28:44;;;;;;;1.33;1.23;;;27.80;99.90;;;;;;4952489;28;20901;-74
2021/07/12 11:31:45;;;;;;;1.00;1.00;;;27.90;99.90;;;;;;4952177;28;20216;-73
2021/07/12 11:34:21;;;;;;;1.27;1.17;;;28.00;99.90;;;;;;4952955;28;20419;-74
2021/07/12 11:36:50;;;;;;;1.37;1.27;;;28.50;99.90;;;;;;4952539;28;20431;-73
2021/07/12 11:39:18;;;;;;;2.13;2.00;;;28.60;99.90;;;;;;4952459;28;20472;-74
2021/07/12 11:41:44;;;;;;;1.93;1.43;;;28.70;99.90;;;;;;4952764;28;20440;-74
2021/07/12 11:44:12;;;;;;;1.40;1.30;;;28.90;99.90;;;;;;4952810;28;20459;-73
2021/07/12 11:46:38;;;;;;;1.10;1.10;;;28.90;99.90;;;;;;4951913;28;20208;-73
2021/07/12 11:49:08;;;;;;;1.63;1.10;;;29.00;99.90;;;;;;4952253;28;20945;-73
2021/07/12 11:51:34;;;;;;;4.07;1.30;;;28.90;99.90;;;;;;4951890;28;20217;-73
2021/07/12 11:54:00;;;;;;;1.47;1.20;;;28.80;99.90;;;;;;4952521;28;20420;-73
2021/07/12 11:56:25;;;;;;;1.50;1.40;;;28.50;99.90;;;;;;4952230;28;20247;-73
2021/07/12 11:58:55;;;;;;;1.80;1.70;;;28.30;99.90;;;;;;4951246;28;20271;-73
2021/07/12 12:01:21;;;;;;;1.30;1.10;;;28.30;99.90;;;;;;4952277;28;20200;-73
2021/07/12 12:03:47;;;;;;;1.50;1.40;;;28.10;99.90;;;;;;4952016;28;20429;-73
2021/07/12 12:06:23;;;;;;;1.50;1.40;;;28.30;99.90;;;;;;4951773;28;20189;-74
2021/07/12 12:09:02;;;;;;;1.77;1.37;;;28.20;99.90;;;;;;4950696;29;20188;-73
2021/07/12 12:11:29;;;;;;;1.90;1.20;;;28.30;99.90;;;;;;4951785;28;20444;-74
2021/07/12 12:13:55;;;;;;;1.43;1.33;;;28.40;99.90;;;;;;4951194;28;20436;-73
2021/07/12 12:16:29;;;;;;;1.97;1.37;;;28.50;99.90;;;;;;4950396;28;20428;-72
2021/07/12 12:18:55;;;;;;;2.10;1.30;;;28.60;99.90;;;;;;4950024;28;20204;-73
2021/07/12 12:21:25;;;;;;;2.20;1.77;;;28.70;99.90;;;;;;4950729;28;20559;-73
2021/07/12 12:23:53;;;;;;;1.70;1.60;;;28.80;99.90;;;;;;4949028;29;20464;-72
2021/07/12 12:26:27;;;;;;;1.73;1.47;;;28.70;99.90;;;;;;4951889;28;20417;-73
2021/07/12 12:28:54;;;;;;;1.37;1.27;;;28.70;99.90;;;;;;4952492;28;20440;-74
2021/07/12 12:31:22;;;;;;;1.20;1.10;;;28.80;99.90;;;;;;4965654;28;21004;-74
2021/07/12 12:34:10;;;;;;;1.53;1.40;;;29.00;99.90;;;;;;4951430;28;20416;-73
2021/07/12 12:36:42;;;;;;;1.50;1.40;;;29.00;99.90;;;;;;4951375;28;20443;-73
2021/07/12 12:39:19;;;;;;;2.20;1.40;;;28.90;99.90;;;;;;4951158;28;20499;-73
2021/07/12 12:41:57;;;;;;;2.60;1.47;;;28.70;99.90;;;;;;4951301;28;20444;-73
2021/07/12 12:44:32;;;;;;;1.43;1.17;;;28.60;99.90;;;;;;4948149;28;20515;-72
2021/07/12 12:47:00;;;;;;;1.00;1.00;;;28.70;99.90;;;;;;4952507;28;20412;-74
2021/07/12 12:49:37;;;;;;;1.47;1.37;;;28.60;99.90;;;;;;4954538;28;20420;-73
2021/07/12 12:52:15;;;;;;;1.63;1.30;;;28.70;99.90;;;;;;4954464;28;20432;-72
2021/07/12 12:54:46;;;;;;;1.53;1.20;;;28.50;99.90;;;;;;4954474;28;20807;-74
2021/07/12 12:57:12;;;;;;;2.60;1.43;;;28.40;99.90;;;;;;4954672;28;20502;-74
2021/07/12 12:59:45;;;;;;;1.70;1.60;;;28.40;99.90;;;;;;4954745;28;20938;-74
2021/07/12 13:02:16;;;;;;;1.13;1.00;;;28.30;99.90;;;;;;4954058;28;20428;-74
2021/07/12 13:04:49;;;;;;;1.20;1.10;;;28.30;99.90;;;;;;4954485;28;20499;-74
2021/07/12 13:07:16;;;;;;;2.67;1.27;;;28.30;99.90;;;;;;4954367;28;20979;-74
2021/07/12 13:09:42;;;;;;;1.53;1.43;;;28.30;99.90;;;;;;4953552;28;20854;-74
2021/07/12 13:12:07;;;;;;;2.20;1.43;;;28.20;99.90;;;;;;4954004;28;20444;-74
2021/07/12 13:14:33;;;;;;;1.17;1.10;;;28.10;99.90;;;;;;4953492;28;20423;-74
2021/07/12 13:17:07;;;;;;;1.40;1.30;;;28.20;99.90;;;;;;4952803;28;20680;-72
2021/07/12 13:19:34;;;;;;;2.30;1.37;;;28.00;99.90;;;;;;4953860;28;20696;-73
2021/07/12 13:21:59;;;;;;;1.50;1.40;;;28.00;99.90;;;;;;4953716;28;20483;-73
2021/07/12 13:24:41;;;;;;;1.33;1.27;;;27.80;99.90;;;;;;4953715;28;20420;-74
2021/07/12 13:27:09;;;;;;;1.77;1.33;;;27.90;99.90;;;;;;4954033;28;20256;-74
2021/07/12 13:29:34;;;;;;;3.60;1.60;;;27.90;99.90;;;;;;4953811;28;20416;-73
2021/07/12 13:32:00;;;;;;;1.80;1.70;;;28.00;99.90;;;;;;4953661;28;20992;-73
2021/07/12 13:34:25;;;;;;;1.80;1.70;;;28.00;99.90;;;;;;4953972;28;20169;-74
2021/07/12 13:36:51;;;;;;;1.50;1.40;;;28.10;99.90;;;;;;4950952;28;20203;-73
2021/07/12 13:39:16;;;;;;;3.43;1.70;;;28.10;99.90;;;;;;4958823;28;20223;-73
2021/07/12 13:41:42;;;;;;;1.20;1.20;;;28.20;99.90;;;;;;4973825;28;20200;-73
2021/07/12 13:44:07;;;;;;;2.00;1.27;;;28.30;99.90;;;;;;4959044;28;20190;-74
2021/07/12 13:46:33;;;;;;;2.10;0.97;;;28.30;99.90;;;;;;4955001;28;20181;-74
2021/07/12 13:48:58;;;;;;;1.33;1.23;;;28.30;99.90;;;;;;4978544;28;20192;-74
2021/07/12 13:51:24;;;;;;;1.60;1.50;;;28.40;99.90;;;;;;4967224;28;20209;-75
2021/07/12 13:53:49;;;;;;;1.70;1.53;;;28.50;99.90;;;;;;4960024;28;20188;-75
2021/07/12 13:56:15;;;;;;;2.13;1.70;;;28.20;99.90;;;;;;4955730;28;20196;-74
2021/07/12 13:58:40;;;;;;;4.40;1.60;;;28.20;99.90;;;;;;4955390;28;20240;-75
2021/07/12 14:01:06;;;;;;;1.60;1.50;;;28.20;99.90;;;;;;4953282;28;20248;-74
2021/07/12 14:03:32;;;;;;;3.57;1.40;;;28.10;99.90;;;;;;4953488;28;20184;-75
2021/07/12 14:05:57;;;;;;;6.47;1.97;;;28.00;99.90;;;;;;4953321;28;20181;-75
2021/07/12 14:08:23;;;;;;;2.40;1.57;;;28.00;99.90;;;;;;4953629;28;20527;-76
2021/07/12 14:10:49;;;;;;;1.90;1.80;;;27.90;99.90;;;;;;4968181;28;20284;-75
2021/07/12 14:13:14;;;;;;;2.60;1.67;;;27.90;99.90;;;;;;4952861;28;20185;-75
2021/07/12 14:15:40;;;;;;;2.13;1.90;;;27.90;99.90;;;;;;4953266;28;20422;-76
2021/07/12 14:18:06;;;;;;;1.80;1.70;;;27.90;99.90;;;;;;4955815;28;20224;-78
2021/07/12 14:20:31;;;;;;;2.13;2.03;;;28.00;99.90;;;;;;4955929;28;20212;-78
2021/07/12 14:22:57;;;;;;;1.87;1.77;;;28.00;99.90;;;;;;4961950;28;20196;-79
2021/07/12 14:25:22;;;;;;;1.27;1.27;;;28.00;99.90;;;;;;4975895;28;20239;-79
2021/07/12 14:27:48;;;;;;;2.30;2.10;;;28.10;99.90;;;;;;4961040;28;20315;-79
2021/07/12 14:30:16;;;;;;;1.73;1.47;;;28.30;99.90;;;;;;4963792;28;20504;-80
2021/07/12 14:32:42;;;;;;;2.00;1.57;;;28.30;99.90;;;;;;4976727;28;20236;-78
2021/07/12 14:35:07;;;;;;;2.13;1.93;;;28.20;99.90;;;;;;4961499;28;20538;-77
2021/07/12 14:37:33;;;;;;;2.43;1.97;;;28.10;99.90;;;;;;4960933;28;20188;-77
2021/07/12 14:39:58;;;;;;;3.13;2.37;;;27.90;99.90;;;;;;4960538;28;20216;-77
2021/07/12 14:42:24;;;;;;;4.47;1.87;;;27.90;99.90;;;;;;4961284;28;20670;-78
2021/07/12 14:44:49;;;;;;;3.30;2.80;;;27.80;99.90;;;;;;4961503;28;20180;-79
2021/07/12 14:47:15;;;;;;;1.70;1.60;;;27.80;99.90;;;;;;4962443;28;20177;-79
2021/07/12 14:49:40;;;;;;;2.07;1.97;;;27.80;99.90;;;;;;4961501;28;20194;-78
2021/07/12 14:52:08;;;;;;;1.90;1.80;;;27.70;99.90;;;;;;4960049;28;20299;-77
2021/07/12 14:54:34;;;;;;;4.50;1.50;;;27.60;99.90;;;;;;4959997;28;20532;-78
2021/07/12 14:56:59;;;;;;;2.13;1.93;;;27.50;99.90;;;;;;4960315;28;20427;-78
2021/07/12 14:59:25;;;;;;;3.03;2.83;;;27.60;99.90;;;;;;4960626;28;20580;-79
2021/07/12 15:01:51;;;;;;;2.47;2.27;;;27.60;99.90;;;;;;4960798;28;20219;-78
2021/07/12 15:04:16;;;;;;;2.07;1.97;;;27.60;99.90;;;;;;4958161;28;20279;-77
2021/07/12 15:06:42;;;;;;;4.10;2.10;;;27.60;99.90;;;;;;4958947;28;20550;-77
2021/07/12 15:09:08;;;;;;;2.30;2.03;;;27.60;99.90;;;;;;4974411;28;20192;-77
2021/07/12 15:11:33;;;;;;;2.50;2.40;;;27.70;99.90;;;;;;4960030;28;20212;-77
2021/07/12 15:13:59;;;;;;;1.73;1.63;;;27.80;99.90;;;;;;4960074;28;20184;-78
2021/07/12 15:16:25;;;;;;;5.83;2.10;;;27.80;99.90;;;;;;4961690;28;20180;-78
2021/07/12 15:18:51;;;;;;;2.07;1.97;;;27.80;99.90;;;;;;4960531;28;20800;-77
2021/07/12 15:21:16;;;;;;;4.50;2.20;;;27.80;99.90;;;;;;4959111;28;20601;-77
2021/07/12 15:23:42;;;;;;;2.17;1.97;;;27.80;99.90;;;;;;4959299;28;20231;-77
2021/07/12 15:26:08;;;;;;;2.20;2.10;;;27.80;99.90;;;;;;4959690;28;20236;-77
2021/07/12 15:28:34;;;;;;;1.88;1.77;;;27.80;99.90;;;;;;4957473;28;20423;-78
2021/07/12 15:30:59;;;;;;;4.93;2.53;;;27.90;99.90;;;;;;4958785;28;20197;-78
2021/07/12 15:33:25;;;;;;;2.60;1.90;;;27.90;99.90;;;;;;4957227;28;20177;-78
2021/07/12 15:35:52;;;;;;;2.07;1.97;;;27.80;99.90;;;;;;4956007;28;20173;-77
2021/07/12 15:38:18;;;;;;;4.30;2.20;;;27.80;99.90;;;;;;4970324;28;20183;-77
2021/07/12 15:40:46;;;;;;;2.70;2.50;;;27.90;99.90;;;;;;4955607;28;20817;-76
2021/07/12 15:43:15;;;;;;;2.10;1.40;;;27.90;99.90;;;;;;4954511;28;20421;-76
2021/07/12 15:45:43;;;;;;;2.37;2.13;;;27.90;99.90;;;;;;4954942;28;20436;-77
2021/07/12 15:48:09;;;;;;;2.17;2.07;;;27.90;99.90;;;;;;4954791;28;20507;-77
2021/07/12 15:50:34;;;;;;;2.53;2.33;;;27.80;99.90;;;;;;4955406;28;20496;-77
2021/07/12 15:53:00;;;;;;;2.03;1.50;;;27.90;99.90;;;;;;4955274;28;20200;-75
2021/07/12 15:55:25;;;;;;;3.57;1.80;;;27.90;99.90;;;;;;4956188;28;20197;-77
2021/07/12 15:57:51;;;;;;;2.23;1.70;;;27.80;99.90;;;;;;4955813;28;20176;-77
2021/07/12 16:00:17;;;;;;;1.83;1.73;;;27.80;99.90;;;;;;4955194;28;20714;-77
2021/07/12 16:02:43;;;;;;;2.70;2.23;;;27.80;99.90;;;;;;4955294;28;20197;-76
2021/07/12 16:05:09;;;;;;;2.70;1.93;;;27.80;99.90;;;;;;4970252;28;20642;-77
2021/07/12 16:07:36;;;;;;;2.00;1.90;;;27.80;99.90;;;;;;4955288;28;20188;-76
2021/07/12 16:10:07;;;;;;;1.73;1.63;;;27.80;99.90;;;;;;4955017;28;20428;-77
2021/07/12 16:12:33;;;;;;;3.77;1.90;;;27.70;99.90;;;;;;4969864;28;20487;-76
2021/07/12 16:14:58;;;;;;;1.73;1.63;;;27.60;99.90;;;;;;4955068;28;20413;-77
2021/07/12 16:17:24;;;;;;;4.67;1.43;;;27.60;99.90;;;;;;4970349;28;20181;-77
2021/07/12 16:19:49;;;;;;;2.70;1.57;;;27.50;99.90;;;;;;4954718;28;20211;-76
2021/07/12 16:22:15;;;;;;;1.70;1.60;;;27.50;99.90;;;;;;4969568;28;20196;-76
2021/07/12 16:24:40;;;;;;;2.13;1.83;;;27.40;99.90;;;;;;4954065;28;20181;-76
2021/07/12 16:27:06;;;;;;;1.87;1.73;;;27.40;99.90;;;;;;4954124;28;20184;-76
2021/07/12 16:29:33;;;;;;;2.10;1.53;;;27.40;99.90;;;;;;4954823;28;20582;-76
2021/07/12 16:31:58;;;;;;;5.97;1.83;;;27.40;99.90;;;;;;4954656;28;20230;-76
2021/07/12 16:34:24;;;;;;;1.93;1.83;;;27.50;99.90;;;;;;4954486;28;20452;-76
2021/07/12 16:36:50;;;;;;;1.83;1.70;;;27.60;99.90;;;;;;4969908;28;20177;-76
2021/07/12 16:39:15;;;;;;;5.80;1.93;;;27.60;99.90;;;;;;4954110;28;20208;-76
2021/07/12 16:41:41;;;;;;;1.80;1.70;;;27.50;99.90;;;;;;4954544;28;20212;-76
2021/07/12 16:44:08;;;;;;;1.63;1.53;;;27.40;99.90;;;;;;4953415;28;20579;-77
2021/07/12 16:46:36;;;;;;;1.80;1.70;;;27.30;99.90;;;;;;4954678;28;20586;-77
2021/07/12 16:49:03;;;;;;;2.40;1.60;;;27.30;99.90;;;;;;4954469;28;20786;-76
2021/07/12 16:51:29;;;;;;;1.90;1.80;;;27.20;99.90;;;;;;4954213;28;20472;-76
2021/07/12 16:53:54;;;;;;;2.03;1.87;;;27.20;99.90;;;;;;4954275;28;20408;-77
2021/07/12 16:56:19;;;;;;;2.97;1.83;;;27.10;99.90;;;;;;4954461;28;20186;-77
2021/07/12 16:58:45;;;;;;;1.97;1.80;;;27.00;99.90;;;;;;4954644;28;20209;-76
2021/07/12 17:01:11;;;;;;;1.60;1.50;;;26.90;99.90;;;;;;4953849;28;20200;-76
2021/07/12 17:03:38;;;;;;;4.00;3.70;;;26.80;99.90;;;;;;4954555;28;20199;-77
2021/07/12 17:06:04;;;;;;;2.40;2.23;;;26.80;99.90;;;;;;4949944;28;20280;-76
2021/07/12 17:08:32;;;;;;;2.10;1.67;;;26.80;99.90;;;;;;4952433;28;20434;-76
2021/07/12 17:10:58;;;;;;;3.70;1.80;;;26.70;99.90;;;;;;4953609;28;20944;-76
2021/07/12 17:13:23;;;;;;;2.67;2.00;;;26.70;99.90;;;;;;4953883;28;20507;-77
2021/07/12 17:15:49;;;;;;;6.03;2.27;;;26.70;99.90;;;;;;4954026;28;20639;-77
2021/07/12 17:18:14;;;;;;;1.70;1.60;;;26.70;99.90;;;;;;4953859;28;20169;-76
2021/07/12 17:20:40;;;;;;;3.20;2.03;;;26.70;99.90;;;;;;4953311;28;20204;-77
2021/07/12 17:23:06;;;;;;;2.90;1.80;;;26.70;99.90;;;;;;4968430;28;20203;-77